sensor_id;sensor_type;location;lat;lon;timestamp;P1;durP1;ratioP1;P2;durP2;ratioP2
9413;SDS011;4746;35.664;139.738;2023-09-30T00:00:13;4.72;;;1.80;;
9413;SDS011;4746;35.664;139.738;2023-09-30T00:02:41;5.97;;;2.13;;
9413;SDS011;4746;35.664;139.738;2023-09-30T00:05:09;4.60;;;1.75;;
9413;SDS011;4746;35.664;139.738;2023-09-30T00:07:37;7.50;;;2.00;;
9413;SDS011;4746;35.664;139.738;2023-09-30T00:10:04;4.63;;;2.10;;
9413;SDS011;4746;35.664;139.738;2023-09-30T00:12:33;4.78;;;1.73;;
9413;SDS011;4746;35.664;139.738;2023-09-30T00:15:00;5.80;;;1.80;;
9413;SDS011;4746;35.664;139.738;2023-09-30T00:17:29;3.60;;;1.52;;
9413;SDS011;4746;35.664;139.738;2023-09-30T00:19:57;5.60;;;1.60;;
9413;SDS011;4746;35.664;139.738;2023-09-30T00:22:25;4.97;;;2.08;;
9413;SDS011;4746;35.664;139.738;2023-09-30T00:24:52;4.88;;;1.50;;
9413;SDS011;4746;35.664;139.738;2023-09-30T00:27:20;5.70;;;2.00;;
9413;SDS011;4746;35.664;139.738;2023-09-30T00:29:48;5.70;;;1.58;;
9413;SDS011;4746;35.664;139.738;2023-09-30T00:32:15;6.68;;;1.80;;
9413;SDS011;4746;35.664;139.738;2023-09-30T00:34:43;5.88;;;2.05;;
9413;SDS011;4746;35.664;139.738;2023-09-30T00:37:10;4.43;;;1.50;;
9413;SDS011;4746;35.664;139.738;2023-09-30T00:39:39;6.68;;;1.95;;
9413;SDS011;4746;35.664;139.738;2023-09-30T00:42:06;5.68;;;2.20;;
9413;SDS011;4746;35.664;139.738;2023-09-30T00:44:34;6.45;;;2.15;;
9413;SDS011;4746;35.664;139.738;2023-09-30T00:47:02;5.95;;;1.80;;
9413;SDS011;4746;35.664;139.738;2023-09-30T00:49:30;5.25;;;1.90;;
9413;SDS011;4746;35.664;139.738;2023-09-30T00:51:59;5.30;;;1.77;;
9413;SDS011;4746;35.664;139.738;2023-09-30T00:54:28;4.18;;;1.90;;
9413;SDS011;4746;35.664;139.738;2023-09-30T00:56:57;4.75;;;1.92;;
9413;SDS011;4746;35.664;139.738;2023-09-30T00:59:27;4.95;;;2.13;;
9413;SDS011;4746;35.664;139.738;2023-09-30T01:01:58;6.07;;;1.90;;
9413;SDS011;4746;35.664;139.738;2023-09-30T01:04:27;9.88;;;2.30;;
9413;SDS011;4746;35.664;139.738;2023-09-30T01:06:55;5.93;;;2.25;;
9413;SDS011;4746;35.664;139.738;2023-09-30T01:09:25;5.72;;;2.15;;
9413;SDS011;4746;35.664;139.738;2023-09-30T01:11:53;3.85;;;1.90;;
9413;SDS011;4746;35.664;139.738;2023-09-30T01:14:33;6.68;;;2.03;;
9413;SDS011;4746;35.664;139.738;2023-09-30T01:17:06;7.15;;;2.67;;
9413;SDS011;4746;35.664;139.738;2023-09-30T01:19:40;7.95;;;2.55;;
9413;SDS011;4746;35.664;139.738;2023-09-30T01:22:10;6.93;;;2.30;;
9413;SDS011;4746;35.664;139.738;2023-09-30T01:24:39;5.40;;;2.10;;
9413;SDS011;4746;35.664;139.738;2023-09-30T01:27:11;5.20;;;1.88;;
9413;SDS011;4746;35.664;139.738;2023-09-30T01:29:41;4.30;;;2.10;;
9413;SDS011;4746;35.664;139.738;2023-09-30T01:32:09;4.95;;;2.25;;
9413;SDS011;4746;35.664;139.738;2023-09-30T01:34:37;7.15;;;2.30;;
9413;SDS011;4746;35.664;139.738;2023-09-30T01:37:05;6.80;;;2.25;;
9413;SDS011;4746;35.664;139.738;2023-09-30T01:39:32;5.00;;;2.28;;
9413;SDS011;4746;35.664;139.738;2023-09-30T01:42:00;5.22;;;2.00;;
9413;SDS011;4746;35.664;139.738;2023-09-30T01:44:28;6.95;;;2.67;;
9413;SDS011;4746;35.664;139.738;2023-09-30T01:46:56;5.25;;;2.17;;
9413;SDS011;4746;35.664;139.738;2023-09-30T01:49:24;5.22;;;2.38;;
9413;SDS011;4746;35.664;139.738;2023-09-30T01:51:51;4.88;;;2.30;;
9413;SDS011;4746;35.664;139.738;2023-09-30T01:54:19;6.28;;;2.75;;
9413;SDS011;4746;35.664;139.738;2023-09-30T01:56:46;7.78;;;2.80;;
9413;SDS011;4746;35.664;139.738;2023-09-30T01:59:15;6.60;;;2.55;;
9413;SDS011;4746;35.664;139.738;2023-09-30T02:01:46;5.05;;;2.35;;
9413;SDS011;4746;35.664;139.738;2023-09-30T02:04:15;6.68;;;2.58;;
9413;SDS011;4746;35.664;139.738;2023-09-30T02:06:42;3.88;;;1.92;;
9413;SDS011;4746;35.664;139.738;2023-09-30T02:09:10;9.32;;;2.55;;
9413;SDS011;4746;35.664;139.738;2023-09-30T02:11:38;5.00;;;2.42;;
9413;SDS011;4746;35.664;139.738;2023-09-30T02:14:06;7.13;;;2.80;;
9413;SDS011;4746;35.664;139.738;2023-09-30T02:16:39;8.60;;;2.67;;
9413;SDS011;4746;35.664;139.738;2023-09-30T02:19:10;5.93;;;2.28;;
9413;SDS011;4746;35.664;139.738;2023-09-30T02:21:38;5.05;;;2.10;;
9413;SDS011;4746;35.664;139.738;2023-09-30T02:24:06;4.85;;;2.47;;
9413;SDS011;4746;35.664;139.738;2023-09-30T02:26:34;5.00;;;2.42;;
9413;SDS011;4746;35.664;139.738;2023-09-30T02:29:01;4.43;;;2.17;;
9413;SDS011;4746;35.664;139.738;2023-09-30T02:31:29;6.35;;;2.45;;
9413;SDS011;4746;35.664;139.738;2023-09-30T02:33:56;5.30;;;2.70;;
9413;SDS011;4746;35.664;139.738;2023-09-30T02:36:25;3.90;;;2.22;;
9413;SDS011;4746;35.664;139.738;2023-09-30T02:38:54;6.95;;;2.20;;
9413;SDS011;4746;35.664;139.738;2023-09-30T02:41:23;7.72;;;2.72;;
9413;SDS011;4746;35.664;139.738;2023-09-30T02:43:51;4.32;;;2.40;;
9413;SDS011;4746;35.664;139.738;2023-09-30T02:46:18;8.27;;;3.00;;
9413;SDS011;4746;35.664;139.738;2023-09-30T02:48:46;6.07;;;2.80;;
9413;SDS011;4746;35.664;139.738;2023-09-30T02:51:13;9.05;;;2.17;;
9413;SDS011;4746;35.664;139.738;2023-09-30T02:53:47;5.72;;;2.90;;
9413;SDS011;4746;35.664;139.738;2023-09-30T02:56:24;4.20;;;2.25;;
9413;SDS011;4746;35.664;139.738;2023-09-30T02:58:56;4.18;;;2.03;;
9413;SDS011;4746;35.664;139.738;2023-09-30T03:01:25;7.15;;;2.38;;
9413;SDS011;4746;35.664;139.738;2023-09-30T03:04:22;5.28;;;3.00;;
9413;SDS011;4746;35.664;139.738;2023-09-30T03:07:02;4.22;;;2.42;;
9413;SDS011;4746;35.664;139.738;2023-09-30T03:09:41;3.90;;;2.50;;
9413;SDS011;4746;35.664;139.738;2023-09-30T03:12:50;2.58;;;2.38;;
9413;SDS011;4746;35.664;139.738;2023-09-30T03:15:27;3.58;;;2.58;;
9413;SDS011;4746;35.664;139.738;2023-09-30T03:18:25;3.08;;;2.30;;
9413;SDS011;4746;35.664;139.738;2023-09-30T03:21:14;3.85;;;2.42;;
9413;SDS011;4746;35.664;139.738;2023-09-30T03:23:56;3.83;;;2.40;;
9413;SDS011;4746;35.664;139.738;2023-09-30T03:27:03;3.40;;;2.70;;
9413;SDS011;4746;35.664;139.738;2023-09-30T03:30:02;3.53;;;2.65;;
9413;SDS011;4746;35.664;139.738;2023-09-30T03:32:38;3.90;;;2.28;;
9413;SDS011;4746;35.664;139.738;2023-09-30T03:35:12;5.45;;;2.45;;
9413;SDS011;4746;35.664;139.738;2023-09-30T03:37:49;4.88;;;2.45;;
9413;SDS011;4746;35.664;139.738;2023-09-30T03:40:17;3.90;;;1.85;;
9413;SDS011;4746;35.664;139.738;2023-09-30T03:42:48;9.18;;;2.95;;
9413;SDS011;4746;35.664;139.738;2023-09-30T03:45:40;5.45;;;2.10;;
9413;SDS011;4746;35.664;139.738;2023-09-30T03:48:07;5.07;;;2.47;;
9413;SDS011;4746;35.664;139.738;2023-09-30T03:50:35;3.63;;;1.88;;
9413;SDS011;4746;35.664;139.738;2023-09-30T03:53:04;6.28;;;2.28;;
9413;SDS011;4746;35.664;139.738;2023-09-30T03:55:35;5.57;;;2.05;;
9413;SDS011;4746;35.664;139.738;2023-09-30T03:58:13;6.38;;;2.70;;
9413;SDS011;4746;35.664;139.738;2023-09-30T04:00:44;5.63;;;2.55;;
9413;SDS011;4746;35.664;139.738;2023-09-30T04:03:19;6.22;;;2.63;;
9413;SDS011;4746;35.664;139.738;2023-09-30T04:05:51;4.63;;;2.40;;
9413;SDS011;4746;35.664;139.738;2023-09-30T04:08:19;4.43;;;2.22;;
9413;SDS011;4746;35.664;139.738;2023-09-30T04:10:49;5.03;;;2.47;;
9413;SDS011;4746;35.664;139.738;2023-09-30T04:13:17;10.57;;;2.90;;
9413;SDS011;4746;35.664;139.738;2023-09-30T04:15:50;6.55;;;2.90;;
9413;SDS011;4746;35.664;139.738;2023-09-30T04:18:27;6.80;;;2.67;;
9413;SDS011;4746;35.664;139.738;2023-09-30T04:21:09;7.47;;;2.78;;
9413;SDS011;4746;35.664;139.738;2023-09-30T04:39:47;4.88;;;2.13;;
9413;SDS011;4746;35.664;139.738;2023-09-30T04:42:15;8.13;;;3.00;;
9413;SDS011;4746;35.664;139.738;2023-09-30T04:45:20;7.43;;;2.80;;
9413;SDS011;4746;35.664;139.738;2023-09-30T04:50:39;7.00;;;3.88;;
9413;SDS011;4746;35.664;139.738;2023-09-30T04:54:12;7.18;;;3.33;;
9413;SDS011;4746;35.664;139.738;2023-09-30T04:56:53;10.40;;;4.60;;
9413;SDS011;4746;35.664;139.738;2023-09-30T05:02:45;7.03;;;3.90;;
9413;SDS011;4746;35.664;139.738;2023-09-30T05:05:28;5.65;;;3.45;;
9413;SDS011;4746;35.664;139.738;2023-09-30T05:07:57;4.28;;;3.42;;
9413;SDS011;4746;35.664;139.738;2023-09-30T05:10:28;6.32;;;2.88;;
9413;SDS011;4746;35.664;139.738;2023-09-30T05:12:55;7.28;;;3.28;;
9413;SDS011;4746;35.664;139.738;2023-09-30T05:15:23;6.47;;;3.15;;
9413;SDS011;4746;35.664;139.738;2023-09-30T05:17:58;6.57;;;3.05;;
9413;SDS011;4746;35.664;139.738;2023-09-30T05:20:26;7.18;;;3.03;;
9413;SDS011;4746;35.664;139.738;2023-09-30T05:22:57;8.60;;;2.90;;
9413;SDS011;4746;35.664;139.738;2023-09-30T05:25:40;5.60;;;2.78;;
9413;SDS011;4746;35.664;139.738;2023-09-30T05:28:08;5.95;;;2.25;;
9413;SDS011;4746;35.664;139.738;2023-09-30T05:30:44;4.57;;;2.60;;
9413;SDS011;4746;35.664;139.738;2023-09-30T05:33:49;3.25;;;2.17;;
9413;SDS011;4746;35.664;139.738;2023-09-30T05:39:54;6.35;;;2.45;;
9413;SDS011;4746;35.664;139.738;2023-09-30T05:42:30;5.10;;;2.38;;
9413;SDS011;4746;35.664;139.738;2023-09-30T05:45:03;7.03;;;2.53;;
9413;SDS011;4746;35.664;139.738;2023-09-30T05:48:08;5.28;;;2.35;;
9413;SDS011;4746;35.664;139.738;2023-09-30T05:50:51;2.35;;;1.80;;
9413;SDS011;4746;35.664;139.738;2023-09-30T05:56:26;4.97;;;2.60;;
9413;SDS011;4746;35.664;139.738;2023-09-30T05:58:53;3.88;;;2.53;;
9413;SDS011;4746;35.664;139.738;2023-09-30T06:01:21;3.58;;;2.97;;
9413;SDS011;4746;35.664;139.738;2023-09-30T06:04:01;5.97;;;3.15;;
9413;SDS011;4746;35.664;139.738;2023-09-30T06:06:35;5.65;;;3.20;;
9413;SDS011;4746;35.664;139.738;2023-09-30T06:09:24;4.15;;;2.72;;
9413;SDS011;4746;35.664;139.738;2023-09-30T06:11:56;4.65;;;3.35;;
9413;SDS011;4746;35.664;139.738;2023-09-30T06:14:40;4.80;;;3.55;;
9413;SDS011;4746;35.664;139.738;2023-09-30T06:17:19;4.90;;;3.63;;
9413;SDS011;4746;35.664;139.738;2023-09-30T06:20:15;8.63;;;3.83;;
9413;SDS011;4746;35.664;139.738;2023-09-30T06:22:46;7.40;;;3.50;;
9413;SDS011;4746;35.664;139.738;2023-09-30T06:25:29;6.13;;;3.72;;
9413;SDS011;4746;35.664;139.738;2023-09-30T06:27:59;4.28;;;2.92;;
9413;SDS011;4746;35.664;139.738;2023-09-30T06:30:26;3.63;;;2.83;;
9413;SDS011;4746;35.664;139.738;2023-09-30T06:32:59;4.25;;;2.92;;
9413;SDS011;4746;35.664;139.738;2023-09-30T06:35:30;3.00;;;2.65;;
9413;SDS011;4746;35.664;139.738;2023-09-30T06:38:02;4.18;;;3.25;;
9413;SDS011;4746;35.664;139.738;2023-09-30T06:40:32;5.38;;;2.97;;
9413;SDS011;4746;35.664;139.738;2023-09-30T06:43:00;3.72;;;3.10;;
9413;SDS011;4746;35.664;139.738;2023-09-30T06:45:28;5.88;;;3.00;;
9413;SDS011;4746;35.664;139.738;2023-09-30T06:47:58;3.20;;;2.85;;
9413;SDS011;4746;35.664;139.738;2023-09-30T06:50:26;3.42;;;2.85;;
9413;SDS011;4746;35.664;139.738;2023-09-30T06:52:54;3.53;;;3.20;;
9413;SDS011;4746;35.664;139.738;2023-09-30T06:55:21;4.25;;;2.65;;
9413;SDS011;4746;35.664;139.738;2023-09-30T06:57:50;5.30;;;3.75;;
9413;SDS011;4746;35.664;139.738;2023-09-30T07:00:18;4.22;;;2.85;;
9413;SDS011;4746;35.664;139.738;2023-09-30T07:02:45;3.63;;;3.00;;
9413;SDS011;4746;35.664;139.738;2023-09-30T07:05:14;6.90;;;3.40;;
9413;SDS011;4746;35.664;139.738;2023-09-30T07:07:42;3.83;;;2.92;;
9413;SDS011;4746;35.664;139.738;2023-09-30T07:10:10;4.60;;;3.58;;
9413;SDS011;4746;35.664;139.738;2023-09-30T07:12:39;7.15;;;3.40;;
9413;SDS011;4746;35.664;139.738;2023-09-30T07:15:08;6.00;;;3.33;;
9413;SDS011;4746;35.664;139.738;2023-09-30T07:17:36;5.78;;;3.17;;
9413;SDS011;4746;35.664;139.738;2023-09-30T07:20:04;6.70;;;3.22;;
9413;SDS011;4746;35.664;139.738;2023-09-30T07:22:34;7.10;;;3.28;;
9413;SDS011;4746;35.664;139.738;2023-09-30T07:25:01;8.80;;;3.83;;
9413;SDS011;4746;35.664;139.738;2023-09-30T07:27:30;6.05;;;3.13;;
9413;SDS011;4746;35.664;139.738;2023-09-30T07:29:57;5.00;;;3.30;;
9413;SDS011;4746;35.664;139.738;2023-09-30T07:32:25;5.75;;;3.33;;
9413;SDS011;4746;35.664;139.738;2023-09-30T07:34:54;6.57;;;3.47;;
9413;SDS011;4746;35.664;139.738;2023-09-30T07:37:22;7.68;;;3.40;;
9413;SDS011;4746;35.664;139.738;2023-09-30T07:39:50;6.43;;;4.10;;
9413;SDS011;4746;35.664;139.738;2023-09-30T07:42:17;5.63;;;3.70;;
9413;SDS011;4746;35.664;139.738;2023-09-30T07:44:45;6.93;;;4.22;;
9413;SDS011;4746;35.664;139.738;2023-09-30T07:47:13;7.15;;;4.00;;
9413;SDS011;4746;35.664;139.738;2023-09-30T07:49:42;6.40;;;4.03;;
9413;SDS011;4746;35.664;139.738;2023-09-30T07:52:10;6.60;;;3.70;;
9413;SDS011;4746;35.664;139.738;2023-09-30T07:54:38;9.27;;;4.10;;
9413;SDS011;4746;35.664;139.738;2023-09-30T07:57:06;10.13;;;4.25;;
9413;SDS011;4746;35.664;139.738;2023-09-30T07:59:34;5.85;;;3.72;;
9413;SDS011;4746;35.664;139.738;2023-09-30T08:02:04;5.70;;;3.55;;
9413;SDS011;4746;35.664;139.738;2023-09-30T08:04:32;7.32;;;3.90;;
9413;SDS011;4746;35.664;139.738;2023-09-30T08:06:59;6.25;;;4.10;;
9413;SDS011;4746;35.664;139.738;2023-09-30T08:09:27;5.90;;;3.72;;
9413;SDS011;4746;35.664;139.738;2023-09-30T08:11:55;5.47;;;3.72;;
9413;SDS011;4746;35.664;139.738;2023-09-30T08:14:23;6.78;;;3.80;;
9413;SDS011;4746;35.664;139.738;2023-09-30T08:16:54;6.88;;;3.45;;
9413;SDS011;4746;35.664;139.738;2023-09-30T08:19:22;6.60;;;3.88;;
9413;SDS011;4746;35.664;139.738;2023-09-30T08:21:49;6.30;;;3.80;;
9413;SDS011;4746;35.664;139.738;2023-09-30T08:24:17;6.10;;;3.92;;
9413;SDS011;4746;35.664;139.738;2023-09-30T08:26:46;5.95;;;3.58;;
9413;SDS011;4746;35.664;139.738;2023-09-30T08:29:14;7.88;;;3.55;;
9413;SDS011;4746;35.664;139.738;2023-09-30T08:31:44;6.57;;;3.50;;
9413;SDS011;4746;35.664;139.738;2023-09-30T08:34:12;6.40;;;3.92;;
9413;SDS011;4746;35.664;139.738;2023-09-30T08:36:40;4.50;;;3.42;;
9413;SDS011;4746;35.664;139.738;2023-09-30T08:39:08;7.05;;;4.28;;
9413;SDS011;4746;35.664;139.738;2023-09-30T08:41:38;6.45;;;3.47;;
9413;SDS011;4746;35.664;139.738;2023-09-30T08:44:09;4.90;;;3.80;;
9413;SDS011;4746;35.664;139.738;2023-09-30T08:46:44;5.30;;;3.60;;
9413;SDS011;4746;35.664;139.738;2023-09-30T08:49:13;6.80;;;4.07;;
9413;SDS011;4746;35.664;139.738;2023-09-30T08:51:47;5.50;;;3.63;;
9413;SDS011;4746;35.664;139.738;2023-09-30T08:54:16;7.47;;;4.15;;
9413;SDS011;4746;35.664;139.738;2023-09-30T08:56:46;9.02;;;3.95;;
9413;SDS011;4746;35.664;139.738;2023-09-30T08:59:16;4.63;;;4.15;;
9413;SDS011;4746;35.664;139.738;2023-09-30T09:01:47;6.35;;;3.95;;
9413;SDS011;4746;35.664;139.738;2023-09-30T09:04:15;7.30;;;3.90;;
9413;SDS011;4746;35.664;139.738;2023-09-30T09:06:46;6.90;;;3.88;;
9413;SDS011;4746;35.664;139.738;2023-09-30T09:09:19;5.35;;;3.60;;
9413;SDS011;4746;35.664;139.738;2023-09-30T09:11:48;5.70;;;3.72;;
9413;SDS011;4746;35.664;139.738;2023-09-30T09:14:17;5.75;;;4.47;;
9413;SDS011;4746;35.664;139.738;2023-09-30T09:16:51;5.70;;;3.90;;
9413;SDS011;4746;35.664;139.738;2023-09-30T09:19:21;5.05;;;3.50;;
9413;SDS011;4746;35.664;139.738;2023-09-30T09:21:56;8.52;;;3.90;;
9413;SDS011;4746;35.664;139.738;2023-09-30T09:24:27;6.18;;;3.80;;
9413;SDS011;4746;35.664;139.738;2023-09-30T09:29:38;5.80;;;3.72;;
9413;SDS011;4746;35.664;139.738;2023-09-30T09:32:10;11.95;;;4.95;;
9413;SDS011;4746;35.664;139.738;2023-09-30T09:34:43;6.70;;;4.07;;
9413;SDS011;4746;35.664;139.738;2023-09-30T09:37:25;7.90;;;4.95;;
9413;SDS011;4746;35.664;139.738;2023-09-30T09:39:56;8.55;;;4.75;;
9413;SDS011;4746;35.664;139.738;2023-09-30T09:42:31;7.65;;;4.47;;
9413;SDS011;4746;35.664;139.738;2023-09-30T09:45:00;5.30;;;4.45;;
9413;SDS011;4746;35.664;139.738;2023-09-30T09:47:34;7.88;;;4.75;;
9413;SDS011;4746;35.664;139.738;2023-09-30T09:50:03;7.25;;;4.40;;
9413;SDS011;4746;35.664;139.738;2023-09-30T09:52:35;6.82;;;4.93;;
9413;SDS011;4746;35.664;139.738;2023-09-30T09:55:10;5.80;;;5.07;;
9413;SDS011;4746;35.664;139.738;2023-09-30T09:57:48;8.70;;;4.85;;
9413;SDS011;4746;35.664;139.738;2023-09-30T10:00:21;7.18;;;5.40;;
9413;SDS011;4746;35.664;139.738;2023-09-30T10:02:55;8.57;;;5.35;;
9413;SDS011;4746;35.664;139.738;2023-09-30T10:05:23;7.88;;;5.63;;
9413;SDS011;4746;35.664;139.738;2023-09-30T10:08:03;5.90;;;5.03;;
9413;SDS011;4746;35.664;139.738;2023-09-30T10:10:42;7.95;;;5.60;;
9413;SDS011;4746;35.664;139.738;2023-09-30T10:21:38;9.10;;;6.03;;
9413;SDS011;4746;35.664;139.738;2023-09-30T10:24:53;7.88;;;5.63;;
9413;SDS011;4746;35.664;139.738;2023-09-30T10:33:29;7.25;;;5.43;;
9413;SDS011;4746;35.664;139.738;2023-09-30T10:40:53;10.65;;;6.22;;
9413;SDS011;4746;35.664;139.738;2023-09-30T10:43:34;11.30;;;6.75;;
9413;SDS011;4746;35.664;139.738;2023-09-30T10:48:52;6.28;;;5.68;;
9413;SDS011;4746;35.664;139.738;2023-09-30T10:51:21;6.07;;;5.57;;
9413;SDS011;4746;35.664;139.738;2023-09-30T10:53:50;7.80;;;5.50;;
9413;SDS011;4746;35.664;139.738;2023-09-30T10:56:31;8.23;;;5.68;;
9413;SDS011;4746;35.664;139.738;2023-09-30T10:59:00;7.63;;;5.22;;
9413;SDS011;4746;35.664;139.738;2023-09-30T11:01:37;6.65;;;5.15;;
9413;SDS011;4746;35.664;139.738;2023-09-30T11:04:11;9.40;;;6.05;;
9413;SDS011;4746;35.664;139.738;2023-09-30T11:06:48;8.18;;;5.88;;
9413;SDS011;4746;35.664;139.738;2023-09-30T11:09:30;7.60;;;5.47;;
9413;SDS011;4746;35.664;139.738;2023-09-30T11:12:02;7.47;;;5.93;;
9413;SDS011;4746;35.664;139.738;2023-09-30T11:14:39;6.13;;;5.03;;
9413;SDS011;4746;35.664;139.738;2023-09-30T11:17:06;6.88;;;5.05;;
9413;SDS011;4746;35.664;139.738;2023-09-30T11:19:47;6.00;;;5.40;;
9413;SDS011;4746;35.664;139.738;2023-09-30T11:22:15;7.32;;;5.45;;
9413;SDS011;4746;35.664;139.738;2023-09-30T11:24:43;7.47;;;5.60;;
9413;SDS011;4746;35.664;139.738;2023-09-30T11:27:11;6.35;;;5.20;;
9413;SDS011;4746;35.664;139.738;2023-09-30T11:29:50;8.60;;;5.65;;
9413;SDS011;4746;35.664;139.738;2023-09-30T11:32:27;5.28;;;4.70;;
9413;SDS011;4746;35.664;139.738;2023-09-30T11:34:56;5.75;;;4.70;;
9413;SDS011;4746;35.664;139.738;2023-09-30T11:37:23;6.88;;;5.28;;
9413;SDS011;4746;35.664;139.738;2023-09-30T11:40:09;6.50;;;5.00;;
9413;SDS011;4746;35.664;139.738;2023-09-30T11:45:37;5.78;;;4.85;;
9413;SDS011;4746;35.664;139.738;2023-09-30T11:48:16;7.55;;;5.55;;
9413;SDS011;4746;35.664;139.738;2023-09-30T11:50:51;6.13;;;5.22;;
9413;SDS011;4746;35.664;139.738;2023-09-30T11:53:20;7.25;;;5.93;;
9413;SDS011;4746;35.664;139.738;2023-09-30T11:55:50;6.53;;;5.25;;
9413;SDS011;4746;35.664;139.738;2023-09-30T11:58:24;5.85;;;5.13;;
9413;SDS011;4746;35.664;139.738;2023-09-30T12:00:56;5.22;;;4.75;;
9413;SDS011;4746;35.664;139.738;2023-09-30T12:03:26;5.45;;;4.95;;
9413;SDS011;4746;35.664;139.738;2023-09-30T12:05:54;5.80;;;5.13;;
9413;SDS011;4746;35.664;139.738;2023-09-30T12:08:32;5.93;;;4.68;;
9413;SDS011;4746;35.664;139.738;2023-09-30T12:11:02;6.38;;;4.72;;
9413;SDS011;4746;35.664;139.738;2023-09-30T12:13:30;5.57;;;5.07;;
9413;SDS011;4746;35.664;139.738;2023-09-30T12:15:58;5.30;;;4.70;;
9413;SDS011;4746;35.664;139.738;2023-09-30T12:18:29;5.30;;;4.90;;
9413;SDS011;4746;35.664;139.738;2023-09-30T12:20:57;5.10;;;4.60;;
9413;SDS011;4746;35.664;139.738;2023-09-30T12:23:24;6.03;;;4.88;;
9413;SDS011;4746;35.664;139.738;2023-09-30T12:25:52;4.53;;;4.15;;
9413;SDS011;4746;35.664;139.738;2023-09-30T12:28:20;5.25;;;4.78;;
9413;SDS011;4746;35.664;139.738;2023-09-30T12:30:47;5.82;;;4.75;;
9413;SDS011;4746;35.664;139.738;2023-09-30T12:33:18;4.80;;;4.40;;
9413;SDS011;4746;35.664;139.738;2023-09-30T12:35:50;4.78;;;4.38;;
9413;SDS011;4746;35.664;139.738;2023-09-30T12:38:18;4.95;;;4.38;;
9413;SDS011;4746;35.664;139.738;2023-09-30T12:40:45;5.65;;;4.45;;
9413;SDS011;4746;35.664;139.738;2023-09-30T12:43:14;4.88;;;4.47;;
9413;SDS011;4746;35.664;139.738;2023-09-30T12:45:42;6.72;;;4.72;;
9413;SDS011;4746;35.664;139.738;2023-09-30T12:48:16;5.35;;;4.40;;
9413;SDS011;4746;35.664;139.738;2023-09-30T12:50:47;4.00;;;3.80;;
9413;SDS011;4746;35.664;139.738;2023-09-30T12:53:15;4.45;;;4.13;;
9413;SDS011;4746;35.664;139.738;2023-09-30T12:55:46;4.82;;;4.43;;
9413;SDS011;4746;35.664;139.738;2023-09-30T12:58:15;6.75;;;4.88;;
9413;SDS011;4746;35.664;139.738;2023-09-30T13:00:43;4.85;;;4.35;;
9413;SDS011;4746;35.664;139.738;2023-09-30T13:03:10;5.18;;;4.78;;
9413;SDS011;4746;35.664;139.738;2023-09-30T13:05:40;4.95;;;4.50;;
9413;SDS011;4746;35.664;139.738;2023-09-30T13:08:08;4.57;;;4.18;;
9413;SDS011;4746;35.664;139.738;2023-09-30T13:10:37;5.45;;;4.85;;
9413;SDS011;4746;35.664;139.738;2023-09-30T13:13:05;6.05;;;4.80;;
9413;SDS011;4746;35.664;139.738;2023-09-30T13:15:32;4.82;;;4.30;;
9413;SDS011;4746;35.664;139.738;2023-09-30T13:18:00;4.65;;;4.35;;
9413;SDS011;4746;35.664;139.738;2023-09-30T13:20:29;6.13;;;5.18;;
9413;SDS011;4746;35.664;139.738;2023-09-30T13:22:59;5.55;;;5.03;;
9413;SDS011;4746;35.664;139.738;2023-09-30T13:25:31;5.00;;;4.53;;
9413;SDS011;4746;35.664;139.738;2023-09-30T13:27:59;6.50;;;4.88;;
9413;SDS011;4746;35.664;139.738;2023-09-30T13:30:52;5.38;;;4.65;;
9413;SDS011;4746;35.664;139.738;2023-09-30T13:33:20;6.95;;;4.68;;
9413;SDS011;4746;35.664;139.738;2023-09-30T13:36:20;7.60;;;4.78;;
9413;SDS011;4746;35.664;139.738;2023-09-30T13:38:50;4.72;;;4.32;;
9413;SDS011;4746;35.664;139.738;2023-09-30T13:41:18;6.05;;;4.70;;
9413;SDS011;4746;35.664;139.738;2023-09-30T13:44:11;5.35;;;4.70;;
9413;SDS011;4746;35.664;139.738;2023-09-30T13:46:51;6.70;;;4.82;;
9413;SDS011;4746;35.664;139.738;2023-09-30T13:49:18;5.20;;;4.80;;
9413;SDS011;4746;35.664;139.738;2023-09-30T13:51:46;4.57;;;4.22;;
9413;SDS011;4746;35.664;139.738;2023-09-30T13:54:22;5.00;;;4.53;;
9413;SDS011;4746;35.664;139.738;2023-09-30T13:57:09;5.03;;;4.60;;
9413;SDS011;4746;35.664;139.738;2023-09-30T13:59:50;5.75;;;4.88;;
9413;SDS011;4746;35.664;139.738;2023-09-30T14:02:20;4.68;;;4.28;;
9413;SDS011;4746;35.664;139.738;2023-09-30T14:04:56;5.55;;;5.05;;
9413;SDS011;4746;35.664;139.738;2023-09-30T14:07:37;4.63;;;4.30;;
9413;SDS011;4746;35.664;139.738;2023-09-30T14:10:20;5.22;;;4.78;;
9413;SDS011;4746;35.664;139.738;2023-09-30T14:12:52;5.47;;;4.00;;
9413;SDS011;4746;35.664;139.738;2023-09-30T14:15:23;6.78;;;5.07;;
9413;SDS011;4746;35.664;139.738;2023-09-30T14:17:54;4.93;;;4.40;;
9413;SDS011;4746;35.664;139.738;2023-09-30T14:20:32;4.63;;;4.22;;
9413;SDS011;4746;35.664;139.738;2023-09-30T14:23:18;5.18;;;4.72;;
9413;SDS011;4746;35.664;139.738;2023-09-30T14:25:54;4.63;;;4.28;;
9413;SDS011;4746;35.664;139.738;2023-09-30T14:28:36;6.65;;;4.63;;
9413;SDS011;4746;35.664;139.738;2023-09-30T14:31:10;5.15;;;4.72;;
9413;SDS011;4746;35.664;139.738;2023-09-30T14:33:46;4.60;;;4.20;;
9413;SDS011;4746;35.664;139.738;2023-09-30T14:36:14;6.05;;;5.38;;
9413;SDS011;4746;35.664;139.738;2023-09-30T14:38:42;5.18;;;4.78;;
9413;SDS011;4746;35.664;139.738;2023-09-30T14:41:11;5.10;;;4.80;;
9413;SDS011;4746;35.664;139.738;2023-09-30T14:43:39;5.32;;;4.75;;
9413;SDS011;4746;35.664;139.738;2023-09-30T14:46:07;5.88;;;5.38;;
9413;SDS011;4746;35.664;139.738;2023-09-30T14:48:34;5.47;;;5.07;;
9413;SDS011;4746;35.664;139.738;2023-09-30T14:51:02;5.55;;;5.15;;
9413;SDS011;4746;35.664;139.738;2023-09-30T14:53:33;5.28;;;4.78;;
9413;SDS011;4746;35.664;139.738;2023-09-30T14:56:01;5.82;;;5.32;;
9413;SDS011;4746;35.664;139.738;2023-09-30T14:58:28;5.97;;;5.57;;
9413;SDS011;4746;35.664;139.738;2023-09-30T15:00:56;6.00;;;5.45;;
9413;SDS011;4746;35.664;139.738;2023-09-30T15:03:23;5.60;;;5.07;;
9413;SDS011;4746;35.664;139.738;2023-09-30T15:05:57;5.35;;;4.85;;
9413;SDS011;4746;35.664;139.738;2023-09-30T15:08:27;5.57;;;5.07;;
9413;SDS011;4746;35.664;139.738;2023-09-30T15:10:54;5.20;;;4.80;;
9413;SDS011;4746;35.664;139.738;2023-09-30T15:13:22;6.32;;;5.40;;
9413;SDS011;4746;35.664;139.738;2023-09-30T15:15:49;6.03;;;5.53;;
9413;SDS011;4746;35.664;139.738;2023-09-30T15:18:17;4.88;;;4.45;;
9413;SDS011;4746;35.664;139.738;2023-09-30T15:20:45;8.77;;;5.18;;
9413;SDS011;4746;35.664;139.738;2023-09-30T15:23:15;6.15;;;5.65;;
9413;SDS011;4746;35.664;139.738;2023-09-30T15:25:43;6.50;;;5.63;;
9413;SDS011;4746;35.664;139.738;2023-09-30T15:28:11;7.38;;;6.45;;
9413;SDS011;4746;35.664;139.738;2023-09-30T15:30:40;6.43;;;5.82;;
9413;SDS011;4746;35.664;139.738;2023-09-30T15:33:08;7.35;;;6.65;;
9413;SDS011;4746;35.664;139.738;2023-09-30T15:35:35;6.90;;;6.30;;
9413;SDS011;4746;35.664;139.738;2023-09-30T15:38:03;6.88;;;6.35;;
9413;SDS011;4746;35.664;139.738;2023-09-30T15:40:30;7.07;;;6.40;;
9413;SDS011;4746;35.664;139.738;2023-09-30T15:43:11;6.07;;;5.68;;
9413;SDS011;4746;35.664;139.738;2023-09-30T15:45:39;6.50;;;6.00;;
9413;SDS011;4746;35.664;139.738;2023-09-30T15:48:08;6.55;;;6.15;;
9413;SDS011;4746;35.664;139.738;2023-09-30T15:50:37;6.47;;;5.88;;
9413;SDS011;4746;35.664;139.738;2023-09-30T15:53:05;6.13;;;5.68;;
9413;SDS011;4746;35.664;139.738;2023-09-30T15:55:33;7.25;;;6.70;;
9413;SDS011;4746;35.664;139.738;2023-09-30T15:58:01;7.00;;;6.40;;
9413;SDS011;4746;35.664;139.738;2023-09-30T16:00:29;6.55;;;6.00;;
9413;SDS011;4746;35.664;139.738;2023-09-30T16:03:03;7.63;;;7.03;;
9413;SDS011;4746;35.664;139.738;2023-09-30T16:05:34;7.07;;;6.53;;
9413;SDS011;4746;35.664;139.738;2023-09-30T16:08:04;7.50;;;6.90;;
9413;SDS011;4746;35.664;139.738;2023-09-30T16:10:35;7.50;;;6.72;;
9413;SDS011;4746;35.664;139.738;2023-09-30T16:13:03;7.47;;;6.78;;